BEE2JK EDDF-EGPH
Flight info
| Callsign | BEE2JK |
|---|---|
| Flight time | 1h 37m |
| Altitude | 34000 |
| Route | OBOKA3W/25C OBOKA Z28 DIBIR DCT BUDIP DCT GODOS DCT AGPED |
| Aircraft | E195/M-SDE3GILORVW/S |
Departure
| Time | 2026-05-04 14:21 |
|---|---|
| Airport | Frankfurt Main Airport (EDDF) |
Arrival
| Time | 2026-05-04 15:59 |
|---|---|
| Airport | Edinburgh Airport (EGPH) |
| Time | Latitude | Longitude | Altitude | Speed | Heading |
|---|---|---|---|---|---|
| 2026-05-04 13:29 | 50.05001 | 8.59215 | 361 ft | 0 kts | 160° |
| 2026-05-04 14:07 | 50.05003 | 8.59214 | 355 ft | 2 kts | 160° |
| 2026-05-04 14:07 | 50.05027 | 8.59200 | 355 ft | 4 kts | 160° |
| 2026-05-04 14:07 | 50.05048 | 8.59188 | 361 ft | 3 kts | 161° |
| 2026-05-04 14:08 | 50.05069 | 8.59186 | 355 ft | 4 kts | 228° |
| 2026-05-04 14:08 | 50.05081 | 8.59219 | 359 ft | 4 kts | 250° |
| 2026-05-04 14:08 | 50.05083 | 8.59228 | 358 ft | 0 kts | 250° |
| 2026-05-04 14:12 | 50.05082 | 8.59211 | 355 ft | 4 kts | 265° |
| 2026-05-04 14:13 | 50.05079 | 8.59143 | 356 ft | 9 kts | 265° |
| 2026-05-04 14:13 | 50.05062 | 8.59044 | 356 ft | 10 kts | 250° |
| 2026-05-04 14:13 | 50.05038 | 8.58943 | 358 ft | 10 kts | 249° |
| 2026-05-04 14:13 | 50.05013 | 8.58833 | 360 ft | 11 kts | 262° |
| 2026-05-04 14:14 | 50.05006 | 8.58791 | 356 ft | 2 kts | 236° |
| 2026-05-04 14:14 | 50.04990 | 8.58746 | 356 ft | 3 kts | 251° |
| 2026-05-04 14:14 | 50.04974 | 8.58693 | 362 ft | 6 kts | 234° |
| 2026-05-04 14:15 | 50.04890 | 8.58682 | 355 ft | 9 kts | 160° |
| 2026-05-04 14:15 | 50.04861 | 8.58699 | 356 ft | 0 kts | 160° |
| 2026-05-04 14:18 | 50.04841 | 8.58710 | 358 ft | 6 kts | 160° |
| 2026-05-04 14:18 | 50.04683 | 8.58764 | 357 ft | 16 kts | 185° |
| 2026-05-04 14:19 | 50.04486 | 8.58579 | 361 ft | 18 kts | 236° |
| 2026-05-04 14:19 | 50.04472 | 8.58527 | 363 ft | 0 kts | 248° |
| 2026-05-04 14:21 | 50.04342 | 8.57985 | 361 ft | 88 kts | 252° |
| 2026-05-04 14:21 | 50.04049 | 8.56749 | 365 ft | 153 kts | 247° |
| 2026-05-04 14:21 | 50.03650 | 8.55100 | 798 ft | 181 kts | 247° |
| 2026-05-04 14:21 | 50.03147 | 8.53154 | 1617 ft | 202 kts | 248° |
| 2026-05-04 14:22 | 50.02604 | 8.51144 | 2927 ft | 204 kts | 248° |
| 2026-05-04 14:22 | 50.02015 | 8.49096 | 4130 ft | 205 kts | 243° |
| 2026-05-04 14:22 | 50.01050 | 8.47572 | 5247 ft | 203 kts | 206° |
| 2026-05-04 14:22 | 49.99658 | 8.47334 | 6098 ft | 203 kts | 179° |
| 2026-05-04 14:23 | 49.96860 | 8.47255 | 7521 ft | 200 kts | 187° |
| 2026-05-04 14:23 | 49.95460 | 8.46974 | 8002 ft | 209 kts | 191° |
| 2026-05-04 14:23 | 49.94026 | 8.46381 | 8364 ft | 226 kts | 198° |
| 2026-05-04 14:24 | 49.92504 | 8.45524 | 8824 ft | 240 kts | 204° |
| 2026-05-04 14:24 | 49.91149 | 8.43944 | 9416 ft | 250 kts | 229° |
| 2026-05-04 14:24 | 49.90209 | 8.41673 | 10123 ft | 254 kts | 236° |
| 2026-05-04 14:24 | 49.89295 | 8.39356 | 10787 ft | 256 kts | 236° |
| 2026-05-04 14:25 | 49.88535 | 8.36784 | 11187 ft | 277 kts | 253° |
| 2026-05-04 14:25 | 49.88719 | 8.30332 | 11812 ft | 320 kts | 275° |
| 2026-05-04 14:25 | 49.89227 | 8.26940 | 12565 ft | 327 kts | 287° |
| 2026-05-04 14:26 | 49.90276 | 8.23847 | 13423 ft | 334 kts | 302° |
| 2026-05-04 14:26 | 49.91662 | 8.20961 | 14276 ft | 338 kts | 304° |
| 2026-05-04 14:26 | 49.93034 | 8.18126 | 15124 ft | 340 kts | 303° |
| 2026-05-04 14:26 | 49.94562 | 8.15222 | 15913 ft | 348 kts | 312° |
| 2026-05-04 14:27 | 49.95738 | 8.13505 | 16424 ft | 352 kts | 315° |
| 2026-05-04 14:27 | 49.97615 | 8.11059 | 17164 ft | 357 kts | 317° |
| 2026-05-04 14:27 | 49.99542 | 8.08582 | 17903 ft | 361 kts | 317° |
| 2026-05-04 14:27 | 50.01466 | 8.06059 | 18625 ft | 365 kts | 316° |
| 2026-05-04 14:28 | 50.03388 | 8.03503 | 19332 ft | 368 kts | 316° |
| 2026-05-04 14:28 | 50.05963 | 8.00055 | 20294 ft | 371 kts | 315° |
| 2026-05-04 14:28 | 50.07284 | 7.98282 | 20737 ft | 373 kts | 315° |
| 2026-05-04 14:28 | 50.09260 | 7.95629 | 21347 ft | 377 kts | 315° |
| 2026-05-04 14:29 | 50.13255 | 7.90257 | 22538 ft | 383 kts | 315° |
| 2026-05-04 14:29 | 50.17325 | 7.84782 | 23662 ft | 389 kts | 315° |
| 2026-05-04 14:30 | 50.19376 | 7.82021 | 24152 ft | 391 kts | 315° |
| 2026-05-04 14:30 | 50.21462 | 7.79209 | 24159 ft | 396 kts | 315° |
| 2026-05-04 14:30 | 50.25541 | 7.73912 | 23953 ft | 379 kts | 324° |
| 2026-05-04 14:31 | 50.27916 | 7.72018 | 24029 ft | 394 kts | 332° |
| 2026-05-04 14:31 | 50.32996 | 7.68604 | 23985 ft | 401 kts | 333° |
| 2026-05-04 14:32 | 50.38111 | 7.65147 | 23984 ft | 402 kts | 333° |
| 2026-05-04 14:32 | 50.40661 | 7.63397 | 23981 ft | 402 kts | 333° |
| 2026-05-04 14:32 | 50.43222 | 7.61635 | 23988 ft | 402 kts | 333° |
| 2026-05-04 14:32 | 50.45735 | 7.59906 | 23980 ft | 402 kts | 333° |
| 2026-05-04 14:33 | 50.48210 | 7.58202 | 23987 ft | 401 kts | 332° |
| 2026-05-04 14:33 | 50.50613 | 7.56543 | 24652 ft | 396 kts | 332° |
| 2026-05-04 14:33 | 50.53103 | 7.54823 | 25161 ft | 399 kts | 332° |
| 2026-05-04 14:33 | 50.55625 | 7.53037 | 25630 ft | 401 kts | 328° |
| 2026-05-04 14:34 | 50.58040 | 7.50828 | 26045 ft | 403 kts | 323° |
| 2026-05-04 14:34 | 50.60353 | 7.48432 | 26434 ft | 407 kts | 321° |
| 2026-05-04 14:34 | 50.62360 | 7.46313 | 26789 ft | 412 kts | 322° |
| 2026-05-04 14:34 | 50.64752 | 7.43819 | 27176 ft | 417 kts | 322° |
| 2026-05-04 14:35 | 50.67187 | 7.41306 | 27602 ft | 420 kts | 322° |
| 2026-05-04 14:35 | 50.69638 | 7.38778 | 28044 ft | 422 kts | 322° |
| 2026-05-04 14:35 | 50.72090 | 7.36255 | 28470 ft | 424 kts | 322° |
| 2026-05-04 14:35 | 50.74453 | 7.33494 | 28858 ft | 421 kts | 311° |
| 2026-05-04 14:36 | 50.76249 | 7.30061 | 29251 ft | 416 kts | 301° |
| 2026-05-04 14:36 | 50.77912 | 7.26314 | 29650 ft | 417 kts | 300° |
| 2026-05-04 14:36 | 50.79559 | 7.22532 | 30010 ft | 420 kts | 300° |
| 2026-05-04 14:36 | 50.81230 | 7.18735 | 30355 ft | 422 kts | 300° |
| 2026-05-04 14:37 | 50.82914 | 7.14926 | 30709 ft | 423 kts | 300° |
| 2026-05-04 14:37 | 50.84602 | 7.11118 | 31057 ft | 424 kts | 300° |
| 2026-05-04 14:37 | 50.86276 | 7.07340 | 31381 ft | 425 kts | 300° |
| 2026-05-04 14:37 | 50.87972 | 7.03500 | 31623 ft | 428 kts | 300° |
| 2026-05-04 14:38 | 50.89654 | 6.99679 | 31844 ft | 430 kts | 299° |
| 2026-05-04 14:38 | 50.91343 | 6.95846 | 32100 ft | 431 kts | 300° |
| 2026-05-04 14:38 | 50.93067 | 6.91960 | 32409 ft | 431 kts | 300° |
| 2026-05-04 14:38 | 50.94788 | 6.88079 | 32764 ft | 429 kts | 299° |
| 2026-05-04 14:39 | 50.96500 | 6.84209 | 33114 ft | 427 kts | 299° |
| 2026-05-04 14:39 | 50.98201 | 6.80354 | 33471 ft | 426 kts | 299° |
| 2026-05-04 14:39 | 50.99847 | 6.76617 | 33790 ft | 424 kts | 299° |
| 2026-05-04 14:40 | 51.03194 | 6.68995 | 34115 ft | 428 kts | 299° |
| 2026-05-04 14:40 | 51.04868 | 6.65169 | 34087 ft | 435 kts | 299° |
| 2026-05-04 14:40 | 51.06604 | 6.61202 | 33967 ft | 442 kts | 299° |
| 2026-05-04 14:40 | 51.08341 | 6.57231 | 33976 ft | 448 kts | 299° |
| 2026-05-04 14:41 | 51.11896 | 6.49071 | 33951 ft | 448 kts | 299° |
| 2026-05-04 14:42 | 51.18825 | 6.33072 | 33966 ft | 445 kts | 298° |
| 2026-05-04 14:42 | 51.22323 | 6.24956 | 33972 ft | 445 kts | 298° |
| 2026-05-04 14:43 | 51.25829 | 6.16797 | 33954 ft | 447 kts | 298° |
| 2026-05-04 14:43 | 51.29310 | 6.08603 | 33975 ft | 447 kts | 297° |
| 2026-05-04 14:44 | 51.32691 | 6.00257 | 33966 ft | 448 kts | 297° |
| 2026-05-04 14:44 | 51.36038 | 5.92014 | 33962 ft | 448 kts | 297° |
| 2026-05-04 14:45 | 51.40192 | 5.84464 | 33990 ft | 462 kts | 315° |
| 2026-05-04 14:45 | 51.45311 | 5.78168 | 33952 ft | 463 kts | 316° |
| 2026-05-04 14:46 | 51.50383 | 5.71941 | 33956 ft | 462 kts | 316° |
| 2026-05-04 14:46 | 51.55411 | 5.65703 | 33960 ft | 462 kts | 316° |
| 2026-05-04 14:47 | 51.60494 | 5.59369 | 33965 ft | 463 kts | 316° |
| 2026-05-04 14:47 | 51.65563 | 5.53035 | 33963 ft | 463 kts | 316° |
| 2026-05-04 14:48 | 51.70622 | 5.46697 | 33954 ft | 459 kts | 316° |
| 2026-05-04 14:48 | 51.75647 | 5.40378 | 33968 ft | 459 kts | 316° |
| 2026-05-04 14:49 | 51.80680 | 5.34032 | 33984 ft | 460 kts | 316° |
| 2026-05-04 14:49 | 51.85710 | 5.27673 | 33978 ft | 461 kts | 316° |
| 2026-05-04 14:50 | 51.90759 | 5.21271 | 33975 ft | 461 kts | 316° |
| 2026-05-04 14:50 | 51.95798 | 5.14865 | 33971 ft | 458 kts | 316° |
| 2026-05-04 14:51 | 52.00806 | 5.08478 | 33980 ft | 458 kts | 315° |
| 2026-05-04 14:51 | 52.05814 | 5.02071 | 33976 ft | 458 kts | 315° |
| 2026-05-04 14:52 | 52.10803 | 4.95669 | 33975 ft | 458 kts | 315° |
| 2026-05-04 14:52 | 52.15809 | 4.89228 | 33963 ft | 459 kts | 316° |
| 2026-05-04 14:53 | 52.20816 | 4.82768 | 33959 ft | 455 kts | 315° |
| 2026-05-04 14:53 | 52.25774 | 4.76350 | 33962 ft | 455 kts | 315° |
| 2026-05-04 14:54 | 52.30729 | 4.69917 | 33967 ft | 455 kts | 315° |
| 2026-05-04 14:54 | 52.35647 | 4.63513 | 33978 ft | 456 kts | 315° |
| 2026-05-04 14:55 | 52.40590 | 4.57061 | 33985 ft | 455 kts | 315° |
| 2026-05-04 14:55 | 52.45531 | 4.50587 | 33982 ft | 451 kts | 315° |
| 2026-05-04 14:56 | 52.50414 | 4.44179 | 33993 ft | 449 kts | 315° |
| 2026-05-04 14:56 | 52.55259 | 4.37797 | 33990 ft | 450 kts | 315° |
| 2026-05-04 14:57 | 52.60138 | 4.31357 | 33994 ft | 450 kts | 315° |
| 2026-05-04 14:57 | 52.65010 | 4.24900 | 33989 ft | 450 kts | 315° |
| 2026-05-04 14:58 | 52.69882 | 4.18424 | 34004 ft | 449 kts | 315° |
| 2026-05-04 14:58 | 52.74723 | 4.11986 | 33997 ft | 447 kts | 315° |
| 2026-05-04 14:59 | 52.79558 | 4.05524 | 34001 ft | 447 kts | 315° |
| 2026-05-04 15:00 | 52.86815 | 3.95785 | 34003 ft | 450 kts | 316° |
| 2026-05-04 15:00 | 52.91652 | 3.89277 | 34009 ft | 450 kts | 316° |
| 2026-05-04 15:01 | 52.98920 | 3.79463 | 34012 ft | 449 kts | 316° |
| 2026-05-04 15:01 | 53.03753 | 3.72928 | 34019 ft | 449 kts | 316° |
| 2026-05-04 15:02 | 53.08578 | 3.66371 | 34019 ft | 449 kts | 316° |
| 2026-05-04 15:02 | 53.13414 | 3.59786 | 34033 ft | 449 kts | 316° |
| 2026-05-04 15:03 | 53.18241 | 3.53188 | 34031 ft | 449 kts | 316° |
| 2026-05-04 15:03 | 53.23022 | 3.46617 | 34042 ft | 448 kts | 317° |
| 2026-05-04 15:04 | 53.25248 | 3.43025 | 34048 ft | 443 kts | 305° |
| 2026-05-04 15:04 | 53.26971 | 3.38801 | 34060 ft | 441 kts | 300° |
| 2026-05-04 15:04 | 53.30267 | 3.30158 | 34044 ft | 440 kts | 300° |
| 2026-05-04 15:05 | 53.33565 | 3.21524 | 34036 ft | 440 kts | 300° |
| 2026-05-04 15:05 | 53.36857 | 3.12890 | 34034 ft | 440 kts | 300° |
| 2026-05-04 15:06 | 53.40146 | 3.04233 | 34025 ft | 442 kts | 300° |
| 2026-05-04 15:07 | 53.45096 | 2.91156 | 34040 ft | 444 kts | 300° |
| 2026-05-04 15:07 | 53.48404 | 2.82377 | 34040 ft | 444 kts | 300° |
| 2026-05-04 15:08 | 53.51704 | 2.73592 | 34037 ft | 444 kts | 300° |
| 2026-05-04 15:08 | 53.54991 | 2.64809 | 34041 ft | 444 kts | 300° |
| 2026-05-04 15:09 | 53.58270 | 2.56012 | 34038 ft | 446 kts | 300° |
| 2026-05-04 15:09 | 53.61563 | 2.47148 | 34047 ft | 448 kts | 300° |
| 2026-05-04 15:10 | 53.66512 | 2.33774 | 34042 ft | 449 kts | 300° |
| 2026-05-04 15:11 | 53.71452 | 2.20357 | 34031 ft | 449 kts | 300° |
| 2026-05-04 15:11 | 53.74719 | 2.11429 | 34044 ft | 451 kts | 301° |
| 2026-05-04 15:12 | 53.78046 | 2.02311 | 34043 ft | 454 kts | 302° |
| 2026-05-04 15:12 | 53.81341 | 1.93254 | 34048 ft | 456 kts | 302° |
| 2026-05-04 15:13 | 53.84661 | 1.84097 | 34051 ft | 457 kts | 302° |
| 2026-05-04 15:13 | 53.87982 | 1.74913 | 34044 ft | 456 kts | 302° |
| 2026-05-04 15:14 | 53.90752 | 1.67220 | 34043 ft | 456 kts | 301° |
| 2026-05-04 15:14 | 53.94054 | 1.58012 | 34054 ft | 458 kts | 302° |
| 2026-05-04 15:15 | 53.97348 | 1.48788 | 34050 ft | 458 kts | 302° |
| 2026-05-04 15:15 | 54.00657 | 1.39541 | 34051 ft | 458 kts | 302° |
| 2026-05-04 15:16 | 54.05585 | 1.25635 | 34052 ft | 458 kts | 302° |
| 2026-05-04 15:17 | 54.10513 | 1.11686 | 34054 ft | 458 kts | 302° |
| 2026-05-04 15:17 | 54.15411 | 0.97741 | 34064 ft | 460 kts | 302° |
| 2026-05-04 15:18 | 54.18678 | 0.88358 | 34061 ft | 460 kts | 302° |
| 2026-05-04 15:19 | 54.23594 | 0.74281 | 34051 ft | 460 kts | 302° |
| 2026-05-04 15:19 | 54.28467 | 0.60165 | 34054 ft | 458 kts | 301° |
| 2026-05-04 15:20 | 54.31716 | 0.50766 | 34056 ft | 458 kts | 302° |
| 2026-05-04 15:20 | 54.34938 | 0.41329 | 34050 ft | 459 kts | 301° |
| 2026-05-04 15:21 | 54.38116 | 0.31977 | 34054 ft | 459 kts | 301° |
| 2026-05-04 15:22 | 54.42937 | 0.17824 | 34046 ft | 459 kts | 301° |
| 2026-05-04 15:22 | 54.47743 | 0.03612 | 34044 ft | 459 kts | 301° |
| 2026-05-04 15:23 | 54.50925 | -0.05885 | 34048 ft | 455 kts | 301° |
| 2026-05-04 15:23 | 54.54084 | -0.15268 | 34043 ft | 453 kts | 301° |
| 2026-05-04 15:24 | 54.60359 | -0.34096 | 34042 ft | 453 kts | 300° |
| 2026-05-04 15:25 | 54.63471 | -0.43533 | 34037 ft | 453 kts | 301° |
| 2026-05-04 15:26 | 54.68155 | -0.57732 | 34031 ft | 453 kts | 300° |
| 2026-05-04 15:26 | 54.72812 | -0.71964 | 34029 ft | 453 kts | 300° |
| 2026-05-04 15:27 | 54.77390 | -0.86095 | 34023 ft | 445 kts | 300° |
| 2026-05-04 15:28 | 54.81897 | -1.00004 | 34024 ft | 443 kts | 299° |
| 2026-05-04 15:29 | 54.86404 | -1.14129 | 34018 ft | 445 kts | 300° |
| 2026-05-04 15:30 | 54.92328 | -1.32737 | 34022 ft | 423 kts | 300° |
| 2026-05-04 15:30 | 54.96425 | -1.45634 | 32048 ft | 415 kts | 300° |
| 2026-05-04 15:31 | 54.99138 | -1.54260 | 31075 ft | 400 kts | 300° |
| 2026-05-04 15:31 | 55.00473 | -1.58487 | 30517 ft | 396 kts | 300° |
| 2026-05-04 15:32 | 55.04373 | -1.70835 | 28980 ft | 388 kts | 300° |
| 2026-05-04 15:32 | 55.07028 | -1.79218 | 27943 ft | 400 kts | 300° |
| 2026-05-04 15:33 | 55.09698 | -1.87666 | 26932 ft | 393 kts | 299° |
| 2026-05-04 15:34 | 55.13221 | -1.99101 | 26377 ft | 379 kts | 299° |
| 2026-05-04 15:34 | 55.14463 | -2.03067 | 26191 ft | 365 kts | 300° |
| 2026-05-04 15:34 | 55.16934 | -2.10571 | 25429 ft | 350 kts | 301° |
| 2026-05-04 15:35 | 55.19372 | -2.17857 | 24405 ft | 345 kts | 300° |
| 2026-05-04 15:35 | 55.20579 | -2.21488 | 23802 ft | 346 kts | 300° |
| 2026-05-04 15:35 | 55.21792 | -2.25149 | 23064 ft | 349 kts | 300° |
| 2026-05-04 15:36 | 55.24243 | -2.32558 | 21477 ft | 353 kts | 300° |
| 2026-05-04 15:36 | 55.25479 | -2.36299 | 20675 ft | 356 kts | 299° |
| 2026-05-04 15:36 | 55.26725 | -2.40082 | 19945 ft | 358 kts | 299° |
| 2026-05-04 15:37 | 55.27957 | -2.43827 | 19396 ft | 352 kts | 299° |
| 2026-05-04 15:37 | 55.29157 | -2.47479 | 18919 ft | 347 kts | 299° |
| 2026-05-04 15:37 | 55.30353 | -2.51127 | 18423 ft | 342 kts | 299° |
| 2026-05-04 15:37 | 55.31531 | -2.54719 | 17924 ft | 337 kts | 299° |
| 2026-05-04 15:38 | 55.32683 | -2.58239 | 17481 ft | 330 kts | 299° |
| 2026-05-04 15:38 | 55.33580 | -2.60986 | 17106 ft | 328 kts | 298° |
| 2026-05-04 15:38 | 55.34713 | -2.64459 | 16648 ft | 329 kts | 298° |
| 2026-05-04 15:38 | 55.35865 | -2.67997 | 16161 ft | 330 kts | 298° |
| 2026-05-04 15:39 | 55.36999 | -2.71483 | 15701 ft | 329 kts | 298° |
| 2026-05-04 15:39 | 55.38126 | -2.74951 | 15239 ft | 326 kts | 298° |
| 2026-05-04 15:39 | 55.40346 | -2.81793 | 14317 ft | 319 kts | 298° |
| 2026-05-04 15:40 | 55.41423 | -2.85124 | 13877 ft | 315 kts | 298° |
| 2026-05-04 15:40 | 55.42395 | -2.88134 | 13455 ft | 310 kts | 298° |
| 2026-05-04 15:40 | 55.43454 | -2.91409 | 13044 ft | 304 kts | 298° |
| 2026-05-04 15:40 | 55.44489 | -2.94617 | 12616 ft | 300 kts | 298° |
| 2026-05-04 15:41 | 55.45512 | -2.97780 | 12202 ft | 295 kts | 301° |
| 2026-05-04 15:41 | 55.46937 | -3.00341 | 11779 ft | 295 kts | 327° |
| 2026-05-04 15:41 | 55.48831 | -3.01663 | 11462 ft | 293 kts | 341° |
| 2026-05-04 15:41 | 55.50810 | -3.02510 | 11017 ft | 292 kts | 343° |
| 2026-05-04 15:42 | 55.52767 | -3.03392 | 10651 ft | 288 kts | 341° |
| 2026-05-04 15:42 | 55.54686 | -3.04374 | 10258 ft | 286 kts | 339° |
| 2026-05-04 15:42 | 55.56574 | -3.05392 | 9871 ft | 283 kts | 339° |
| 2026-05-04 15:42 | 55.58379 | -3.06391 | 9524 ft | 279 kts | 338° |
| 2026-05-04 15:43 | 55.60220 | -3.07424 | 9158 ft | 277 kts | 339° |
| 2026-05-04 15:43 | 55.62047 | -3.08446 | 8775 ft | 275 kts | 339° |
| 2026-05-04 15:43 | 55.63867 | -3.09471 | 8443 ft | 274 kts | 338° |
| 2026-05-04 15:43 | 55.65685 | -3.10488 | 8068 ft | 275 kts | 339° |
| 2026-05-04 15:44 | 55.67502 | -3.11500 | 7696 ft | 274 kts | 339° |
| 2026-05-04 15:44 | 55.69289 | -3.12495 | 7337 ft | 272 kts | 339° |
| 2026-05-04 15:44 | 55.69868 | -3.12814 | 7256 ft | 270 kts | 340° |
| 2026-05-04 15:44 | 55.71654 | -3.13683 | 7054 ft | 265 kts | 349° |
| 2026-05-04 15:45 | 55.73467 | -3.13587 | 6810 ft | 263 kts | 2° |
| 2026-05-04 15:45 | 55.75245 | -3.13123 | 6585 ft | 259 kts | 6° |
| 2026-05-04 15:45 | 55.76963 | -3.12573 | 6471 ft | 251 kts | 7° |
| 2026-05-04 15:45 | 55.78670 | -3.12057 | 6338 ft | 250 kts | 5° |
| 2026-05-04 15:46 | 55.80398 | -3.11610 | 6209 ft | 251 kts | 4° |
| 2026-05-04 15:46 | 55.82138 | -3.11192 | 6011 ft | 253 kts | 4° |
| 2026-05-04 15:46 | 55.83847 | -3.10768 | 5858 ft | 250 kts | 5° |
| 2026-05-04 15:46 | 55.85588 | -3.10317 | 5676 ft | 249 kts | 4° |
| 2026-05-04 15:47 | 55.87286 | -3.09884 | 5523 ft | 248 kts | 4° |
| 2026-05-04 15:47 | 55.88963 | -3.09463 | 5364 ft | 247 kts | 5° |
| 2026-05-04 15:47 | 55.89555 | -3.09306 | 5301 ft | 247 kts | 6° |
| 2026-05-04 15:47 | 55.90932 | -3.08408 | 5202 ft | 251 kts | 30° |
| 2026-05-04 15:48 | 55.92088 | -3.06158 | 5060 ft | 257 kts | 58° |
| 2026-05-04 15:48 | 55.92913 | -3.03355 | 4925 ft | 256 kts | 59° |
| 2026-05-04 15:48 | 55.94581 | -2.97782 | 4725 ft | 255 kts | 59° |
| 2026-05-04 15:49 | 55.95422 | -2.94965 | 4615 ft | 255 kts | 59° |
| 2026-05-04 15:49 | 55.96257 | -2.92177 | 4535 ft | 254 kts | 59° |
| 2026-05-04 15:49 | 55.97092 | -2.89371 | 4318 ft | 259 kts | 59° |
| 2026-05-04 15:49 | 55.98108 | -2.86789 | 4120 ft | 250 kts | 38° |
| 2026-05-04 15:50 | 55.99604 | -2.85491 | 4078 ft | 235 kts | 5° |
| 2026-05-04 15:50 | 56.01225 | -2.85308 | 4076 ft | 236 kts | 359° |
| 2026-05-04 15:50 | 56.02882 | -2.85143 | 4027 ft | 239 kts | 360° |
| 2026-05-04 15:50 | 56.04542 | -2.84976 | 3903 ft | 239 kts | 359° |
| 2026-05-04 15:51 | 56.06189 | -2.84796 | 3878 ft | 235 kts | 359° |
| 2026-05-04 15:51 | 56.07803 | -2.84916 | 3819 ft | 231 kts | 340° |
| 2026-05-04 15:51 | 56.09124 | -2.86396 | 3801 ft | 226 kts | 308° |
| 2026-05-04 15:51 | 56.09595 | -2.88902 | 4259 ft | 209 kts | 262° |
| 2026-05-04 15:52 | 56.09232 | -2.91124 | 5514 ft | 183 kts | 257° |
| 2026-05-04 15:52 | 56.09089 | -2.93361 | 6143 ft | 194 kts | 270° |
| 2026-05-04 15:52 | 56.08999 | -2.95992 | 5461 ft | 229 kts | 253° |
| 2026-05-04 15:52 | 56.08100 | -2.98533 | 4800 ft | 246 kts | 233° |
| 2026-05-04 15:53 | 56.07117 | -3.00830 | 4556 ft | 230 kts | 242° |
| 2026-05-04 15:53 | 56.06396 | -3.03282 | 4276 ft | 219 kts | 245° |
| 2026-05-04 15:53 | 56.05659 | -3.05517 | 4015 ft | 212 kts | 240° |
| 2026-05-04 15:53 | 56.04938 | -3.07537 | 3773 ft | 205 kts | 242° |
| 2026-05-04 15:54 | 56.04228 | -3.09737 | 3515 ft | 196 kts | 243° |
| 2026-05-04 15:54 | 56.03566 | -3.11728 | 3261 ft | 184 kts | 242° |
| 2026-05-04 15:54 | 56.02914 | -3.13655 | 3007 ft | 174 kts | 243° |
| 2026-05-04 15:54 | 56.02320 | -3.15444 | 2774 ft | 165 kts | 243° |
| 2026-05-04 15:55 | 56.01745 | -3.17165 | 2550 ft | 157 kts | 244° |
| 2026-05-04 15:55 | 56.01199 | -3.18795 | 2333 ft | 148 kts | 244° |
| 2026-05-04 15:55 | 56.00681 | -3.20341 | 2135 ft | 139 kts | 244° |
| 2026-05-04 15:55 | 56.00262 | -3.21590 | 1971 ft | 134 kts | 244° |
| 2026-05-04 15:56 | 56.00026 | -3.22293 | 1886 ft | 135 kts | 245° |
| 2026-05-04 15:56 | 55.99524 | -3.23798 | 1732 ft | 140 kts | 244° |
| 2026-05-04 15:56 | 55.99032 | -3.25257 | 1533 ft | 143 kts | 244° |
| 2026-05-04 15:56 | 55.98528 | -3.26754 | 1325 ft | 138 kts | 244° |
| 2026-05-04 15:57 | 55.98197 | -3.27749 | 1135 ft | 138 kts | 245° |
| 2026-05-04 15:57 | 55.97638 | -3.29489 | 864 ft | 139 kts | 243° |
| 2026-05-04 15:57 | 55.97132 | -3.30953 | 739 ft | 140 kts | 241° |
| 2026-05-04 15:57 | 55.96619 | -3.32470 | 599 ft | 144 kts | 242° |
| 2026-05-04 15:58 | 55.96101 | -3.34004 | 399 ft | 147 kts | 240° |
| 2026-05-04 15:58 | 55.95573 | -3.35518 | 207 ft | 144 kts | 242° |
| 2026-05-04 15:58 | 55.95095 | -3.36980 | 112 ft | 124 kts | 239° |
| 2026-05-04 15:58 | 55.94712 | -3.38096 | 113 ft | 83 kts | 238° |
| 2026-05-04 15:59 | 55.94483 | -3.38777 | 111 ft | 47 kts | 237° |
| 2026-05-04 15:59 | 55.94378 | -3.38963 | 113 ft | 11 kts | 168° |
| 2026-05-04 15:59 | 55.94323 | -3.38910 | 114 ft | 8 kts | 147° |
| 2026-05-04 15:59 | 55.94283 | -3.38842 | 115 ft | 7 kts | 114° |
| 2026-05-04 16:00 | 55.94285 | -3.38803 | 115 ft | 4 kts | 77° |
| 2026-05-04 16:00 | 55.94301 | -3.38739 | 112 ft | 8 kts | 58° |
| 2026-05-04 16:00 | 55.94340 | -3.38627 | 115 ft | 12 kts | 58° |
| 2026-05-04 16:00 | 55.94383 | -3.38495 | 113 ft | 14 kts | 60° |
| 2026-05-04 16:01 | 55.94439 | -3.38332 | 113 ft | 17 kts | 58° |
| 2026-05-04 16:01 | 55.94530 | -3.38068 | 113 ft | 20 kts | 60° |
| 2026-05-04 16:01 | 55.94578 | -3.37922 | 114 ft | 20 kts | 58° |
| 2026-05-04 16:01 | 55.94654 | -3.37703 | 113 ft | 22 kts | 59° |
| 2026-05-04 16:02 | 55.94734 | -3.37467 | 113 ft | 23 kts | 58° |
| 2026-05-04 16:02 | 55.94806 | -3.37258 | 114 ft | 24 kts | 58° |
| 2026-05-04 16:02 | 55.94971 | -3.36766 | 115 ft | 23 kts | 59° |
| 2026-05-04 16:03 | 55.95056 | -3.36512 | 113 ft | 24 kts | 59° |
| 2026-05-04 16:03 | 55.95139 | -3.36249 | 115 ft | 21 kts | 78° |
| 2026-05-04 16:03 | 55.95116 | -3.36122 | 114 ft | 10 kts | 109° |
| 2026-05-04 16:03 | 55.95092 | -3.35996 | 113 ft | 11 kts | 111° |
| 2026-05-04 16:04 | 55.95055 | -3.35870 | 113 ft | 12 kts | 121° |
| 2026-05-04 16:04 | 55.94943 | -3.35864 | 115 ft | 8 kts | 187° |
| 2026-05-04 16:04 | 55.94899 | -3.35901 | 115 ft | 7 kts | 208° |
| 2026-05-04 16:05 | 55.94886 | -3.35914 | 114 ft | 1 kts | 209° |
| 2026-05-04 16:05 | 55.94875 | -3.35925 | 115 ft | 0 kts | 209° |
| 2026-05-04 16:05 | 55.94862 | -3.35938 | 114 ft | 1 kts | 208° |
| 2026-05-04 16:06 | 55.94858 | -3.35941 | 115 ft | 0 kts | 208° |